createdAt,value
2022-09-17T00:04:31.647Z,22
2022-09-17T00:09:44.630Z,22
2022-09-17T00:14:57.148Z,22
2022-09-17T00:20:09.426Z,22
2022-09-17T00:25:22.165Z,22
2022-09-17T00:30:34.357Z,22
2022-09-17T00:35:46.507Z,22
2022-09-17T00:40:59.097Z,22
2022-09-17T00:46:11.328Z,22
2022-09-17T00:51:23.647Z,22
2022-09-17T01:01:46.189Z,21
2022-09-17T01:06:58.115Z,21
2022-09-17T01:12:10.246Z,21
2022-09-17T01:17:22.892Z,20
2022-09-17T01:22:35.000Z,20
2022-09-17T01:27:47.115Z,20
2022-09-17T01:32:59.461Z,20
2022-09-17T01:38:11.821Z,20
2022-09-17T01:43:23.866Z,20
2022-09-17T01:48:36.266Z,20
2022-09-17T01:53:48.269Z,20
2022-09-17T01:59:00.518Z,19
2022-09-17T02:04:12.742Z,19
2022-09-17T02:09:24.909Z,19
2022-09-17T02:14:36.844Z,19
2022-09-17T02:19:49.268Z,19
2022-09-17T02:25:01.340Z,19
2022-09-17T02:30:13.420Z,19
2022-09-17T02:35:25.691Z,19
2022-09-17T02:40:37.895Z,19
2022-09-17T02:45:49.924Z,19
2022-09-17T02:51:02.369Z,19
2022-09-17T02:56:14.433Z,19
2022-09-17T03:01:26.224Z,19
2022-09-17T03:06:38.693Z,19
2022-09-17T03:11:50.597Z,19
2022-09-17T03:17:02.505Z,18
2022-09-17T03:22:14.989Z,19
2022-09-17T03:27:26.979Z,19
2022-09-17T03:32:38.936Z,19
2022-09-17T03:37:51.333Z,19
2022-09-17T03:43:03.319Z,19
2022-09-17T03:48:15.319Z,19
2022-09-17T03:53:27.653Z,19
2022-09-17T03:58:39.667Z,19
2022-09-17T04:03:51.648Z,19
2022-09-17T04:09:03.900Z,19
2022-09-17T04:14:15.987Z,19
2022-09-17T04:19:28.048Z,19
2022-09-17T04:24:40.731Z,18
2022-09-17T04:29:52.769Z,18
2022-09-17T04:35:04.668Z,19
2022-09-17T04:40:17.243Z,19
2022-09-17T04:45:29.549Z,19
2022-09-17T04:50:41.777Z,19
2022-09-17T04:55:54.148Z,19
2022-09-17T05:01:06.512Z,19
2022-09-17T05:06:18.679Z,19
2022-09-17T05:11:31.171Z,19
2022-09-17T05:16:43.429Z,18
2022-09-17T05:21:55.570Z,19
2022-09-17T05:27:08.022Z,19
2022-09-17T05:32:20.306Z,19
2022-09-17T05:37:32.342Z,19
2022-09-17T05:42:44.933Z,19
2022-09-17T05:47:56.947Z,19
2022-09-17T05:53:09.481Z,19
2022-09-17T05:58:22.298Z,19
2022-09-17T06:03:34.738Z,19
2022-09-17T06:08:47.309Z,19
2022-09-17T06:14:00.258Z,19
2022-09-17T06:19:12.655Z,20
2022-09-17T06:24:25.041Z,20
2022-09-17T06:29:38.003Z,20
2022-09-17T06:34:50.897Z,21
2022-09-17T06:40:03.361Z,21
2022-09-17T06:45:17.809Z,21
2022-09-17T06:50:29.587Z,21
2022-09-17T06:55:41.846Z,21
2022-09-17T07:00:54.696Z,21
2022-09-17T07:06:07.597Z,21
2022-09-17T07:11:20.034Z,22
2022-09-17T07:16:33.109Z,22
2022-09-17T07:21:46.115Z,22
2022-09-17T07:26:58.872Z,23
2022-09-17T07:32:11.784Z,23
2022-09-17T07:37:24.261Z,23
2022-09-17T07:42:36.972Z,23
2022-09-17T07:47:49.781Z,23
2022-09-17T07:53:02.077Z,23
2022-09-17T07:58:16.557Z,23
2022-09-17T08:03:28.815Z,23
2022-09-17T08:08:41.238Z,23
2022-09-17T08:44:59.921Z,14
2022-09-17T08:50:10.642Z,14
2022-09-17T08:55:22.448Z,15
2022-09-17T09:00:34.787Z,15
2022-09-17T09:52:15.216Z,13
2022-09-17T09:57:27.267Z,13
2022-09-17T10:02:40.147Z,14
2022-09-17T10:07:53.219Z,14
2022-09-17T10:13:05.673Z,14
2022-09-17T10:18:17.775Z,14
2022-09-17T10:23:29.961Z,14
2022-09-17T10:28:41.706Z,14
2022-09-17T10:33:53.929Z,14
2022-09-17T10:39:06.280Z,14
2022-09-17T10:44:18.047Z,14
2022-09-17T10:49:29.754Z,14
2022-09-17T10:54:42.251Z,14
2022-09-17T10:59:53.896Z,14
2022-09-17T11:05:06.180Z,14
2022-09-17T11:10:18.642Z,14
2022-09-17T11:15:30.782Z,14
2022-09-17T11:20:43.370Z,14
2022-09-17T11:26:01.652Z,14
2022-09-17T11:31:25.063Z,16
2022-09-17T11:47:03.469Z,16
2022-09-17T11:52:16.075Z,16
2022-09-17T11:57:29.184Z,18
2022-09-17T12:07:55.387Z,20
2022-09-17T12:13:07.656Z,20
2022-09-17T12:18:34.036Z,22
2022-09-17T12:23:43.951Z,21
2022-09-17T12:28:56.504Z,22
2022-09-17T12:39:19.122Z,21
2022-09-17T13:05:11.806Z,18
2022-09-17T13:10:25.803Z,21
2022-09-17T13:15:40.026Z,23
2022-09-17T13:20:53.799Z,24
2022-09-17T13:31:17.423Z,24
2022-09-17T13:41:39.432Z,23
2022-09-17T14:07:32.453Z,21
2022-09-17T14:12:44.872Z,21
2022-09-17T14:17:57.833Z,21
2022-09-17T14:23:10.453Z,21
2022-09-17T14:28:22.794Z,20
2022-09-17T14:33:35.187Z,21
2022-09-17T14:38:48.400Z,21
2022-09-17T14:44:00.932Z,21
2022-09-17T14:49:13.412Z,21
2022-09-17T14:54:26.552Z,21
2022-09-17T14:59:40.321Z,21
2022-09-17T15:04:52.533Z,21
2022-09-17T15:10:05.167Z,21
2022-09-17T15:20:27.468Z,21
2022-09-17T15:25:51.087Z,21
2022-09-17T15:31:03.728Z,21
2022-09-17T15:36:16.485Z,21
2022-09-17T15:41:29.462Z,21
2022-09-17T15:51:51.571Z,20
2022-09-17T15:57:07.604Z,20
2022-09-17T16:02:20.587Z,20
2022-09-17T16:07:33.100Z,20
2022-09-17T16:12:46.050Z,20
2022-09-17T16:17:59.426Z,20
2022-09-17T16:23:11.377Z,20
2022-09-17T16:28:24.749Z,20
2022-09-17T16:33:36.965Z,20
2022-09-17T16:38:49.660Z,19
2022-09-17T16:44:01.898Z,19
2022-09-17T16:49:14.156Z,19
2022-09-17T16:54:26.340Z,19
2022-09-17T16:59:39.015Z,19
2022-09-17T17:04:52.466Z,19
2022-09-17T17:10:04.276Z,18
2022-09-17T17:15:16.650Z,18
2022-09-17T17:20:28.991Z,18
2022-09-17T17:25:40.874Z,18
2022-09-17T17:30:53.289Z,18
2022-09-17T17:36:09.075Z,17
2022-09-17T17:41:23.037Z,17
2022-09-17T17:46:35.765Z,17
2022-09-17T17:51:47.888Z,17
2022-09-17T17:56:59.984Z,17
2022-09-17T18:02:12.914Z,17
2022-09-17T18:07:25.292Z,17
2022-09-17T18:12:37.714Z,17
2022-09-17T18:17:50.086Z,16
2022-09-17T18:23:02.395Z,16
2022-09-17T18:28:15.013Z,16
2022-09-17T18:33:27.772Z,16
2022-09-17T18:38:39.676Z,16
2022-09-17T18:43:52.447Z,16
2022-09-17T18:49:19.548Z,16
2022-09-17T18:54:31.636Z,16
2022-09-17T18:59:43.727Z,16
2022-09-17T19:04:56.432Z,15
2022-09-17T19:10:08.447Z,15
2022-09-17T19:15:20.323Z,15
2022-09-17T19:20:33.239Z,15
2022-09-17T19:25:45.024Z,14
2022-09-17T19:30:57.393Z,15
2022-09-17T19:36:19.445Z,15
2022-09-17T19:41:54.785Z,14
2022-09-17T19:47:04.718Z,14
2022-09-17T19:52:16.913Z,14
2022-09-17T19:57:29.236Z,14
2022-09-17T20:02:41.849Z,14
2022-09-17T20:07:54.026Z,14
2022-09-17T20:13:06.105Z,14
2022-09-17T20:18:24.346Z,14
2022-09-17T20:23:40.292Z,14
2022-09-17T20:34:02.499Z,13
2022-09-17T20:39:23.815Z,13
2022-09-17T20:44:34.529Z,13
2022-09-17T20:49:46.933Z,13
2022-09-17T20:54:59.149Z,13
2022-09-17T21:00:11.491Z,13
2022-09-17T21:05:23.897Z,13
2022-09-17T21:10:36.661Z,13
2022-09-17T21:15:48.873Z,13
2022-09-17T21:21:01.150Z,13
2022-09-17T21:26:13.328Z,13
2022-09-17T21:31:33.600Z,13
2022-09-17T21:36:44.905Z,13
2022-09-17T21:41:56.434Z,13
2022-09-17T21:47:12.911Z,13
2022-09-17T21:52:26.015Z,13
2022-09-17T21:57:37.968Z,13
2022-09-17T22:02:50.229Z,13
2022-09-17T22:08:02.416Z,13
2022-09-17T22:13:14.713Z,13
2022-09-17T22:18:26.681Z,12
2022-09-17T22:23:38.864Z,12
2022-09-17T22:28:50.829Z,12
2022-09-17T22:34:03.304Z,12
2022-09-17T22:39:15.249Z,12
2022-09-17T22:44:26.936Z,12
2022-09-17T22:49:40.067Z,12
2022-09-17T22:54:52.129Z,12
2022-09-17T23:00:19.201Z,11
2022-09-17T23:05:29.286Z,12
2022-09-17T23:10:43.417Z,12
2022-09-17T23:15:55.045Z,12
2022-09-17T23:21:07.041Z,12
2022-09-17T23:26:19.159Z,12
2022-09-17T23:31:31.307Z,11
2022-09-17T23:36:43.348Z,12
2022-09-17T23:41:55.460Z,12
2022-09-17T23:47:07.215Z,12
2022-09-17T23:52:18.962Z,11
2022-09-17T23:57:30.933Z,11
